Time;durP1;ratioP1;P1;durP2;ratioP2;P2;SDS_P1;SDS_P2;PMS_P1;PMS_P2;Temp;Humidity;BMP_temperature;BMP_pressure;BME280_temperature;BME280_humidity;BME280_pressure;Samples;Min_cycle;Max_cycle;Signal;HPM_P1;HPM_P2
2021/08/13 00:01:46;;;;;;;;;;;16.80;99.90;;;15.51;93.03;101551.41;2567922;30;137315;-40
2021/08/13 00:04:14;;;;;;;;;;;16.80;99.90;;;15.50;92.67;101555.22;2568154;30;137062;-41
2021/08/13 00:06:41;;;;;;;;;;;16.80;99.90;;;15.47;92.99;101556.50;2568349;30;138376;-39
2021/08/13 00:09:09;;;;;;;;;;;16.70;99.90;;;15.44;92.82;101562.47;2566711;30;137735;-39
2021/08/13 00:11:38;;;;;;;;;;;16.70;99.90;;;15.44;93.10;101561.63;2567934;30;137899;-39
2021/08/13 00:14:07;;;;;;;;;;;16.70;99.90;;;15.40;93.30;101561.25;2569208;30;137384;-41
2021/08/13 00:16:35;;;;;;;;;;;16.70;99.90;;;15.38;92.71;101557.88;2568850;30;138296;-39
2021/08/13 00:19:03;;;;;;;;;;;16.70;99.90;;;15.35;92.38;101564.66;2569804;30;136785;-40
2021/08/13 00:21:31;;;;;;;;;;;16.60;99.90;;;15.33;92.84;101561.28;2566414;30;139486;-39
2021/08/13 00:23:59;;;;;;;;;;;16.60;99.90;;;15.28;92.81;101544.66;2567200;30;137040;-39
2021/08/13 00:26:29;;;;;;;;;;;16.60;99.90;;;15.31;93.24;101557.09;2568315;30;138415;-40
2021/08/13 00:28:56;;;;;;;;;;;16.60;99.90;;;15.28;93.26;101555.63;2568623;30;137069;-40
2021/08/13 00:31:24;;;;;;;;;;;16.60;99.90;;;15.29;93.64;101564.75;2569385;30;137386;-39
2021/08/13 00:33:52;;;;;;;;;;;16.60;99.90;;;15.28;93.36;101580.38;2568336;30;136957;-40
2021/08/13 00:36:19;;;;;;;;;;;16.50;99.90;;;15.29;93.62;101584.81;2568550;30;138234;-39
2021/08/13 00:38:47;;;;;;;;;;;16.60;99.90;;;15.29;94.01;101590.31;2567632;30;139576;-40
2021/08/13 00:41:15;;;;;;;;;;;16.60;99.90;;;15.28;93.95;101587.81;2568019;30;138284;-39
2021/08/13 00:43:44;;;;;;;;;;;16.60;99.90;;;15.25;94.07;101591.84;2567737;30;138927;-39
2021/08/13 00:46:12;;;;;;;;;;;16.50;99.90;;;15.23;93.94;101594.78;2568636;30;139446;-39
2021/08/13 00:49:08;;;;;;;;;;;16.50;99.90;;;15.18;93.46;101585.56;2565783;30;138693;-40
2021/08/13 00:51:41;;;;;;;;;;;16.50;99.90;;;15.16;93.84;101587.69;2568108;30;137167;-39
2021/08/13 00:54:12;;;;;;;;;;;16.50;99.90;;;15.14;93.98;101578.84;2567997;30;138355;-40
2021/08/13 00:56:46;;;;;;;;;;;16.40;99.90;;;15.12;93.94;101580.94;2568446;30;138048;-39
2021/08/13 00:59:40;;;;;;;;;;;16.40;99.90;;;15.08;94.16;101572.31;2568545;30;136819;-39
2021/08/13 01:02:17;;;;;;;;;;;16.40;99.90;;;15.08;94.22;101575.06;2568564;30;139771;-39
2021/08/13 01:04:52;;;;;;;;;;;16.40;99.90;;;15.07;94.14;101579.72;2569259;30;136870;-39
2021/08/13 01:07:25;;;;;;;;;;;16.40;99.90;;;15.05;93.69;101576.34;2567252;30;139203;-39
2021/08/13 01:09:52;;;;;;;;;;;16.30;99.90;;;15.05;93.92;101570.84;2568899;30;139235;-41
2021/08/13 01:12:28;;;;;;;;;;;16.30;99.90;;;15.04;93.86;101577.41;2568418;30;138226;-39
2021/08/13 01:15:11;;;;;;;;;;;16.40;99.90;;;15.04;93.93;101571.09;2568716;30;138189;-40
2021/08/13 01:17:44;;;;;;;;;;;16.30;99.90;;;15.03;93.89;101594.13;2567956;30;139342;-39
2021/08/13 01:20:16;;;;;;;;;;;16.30;99.90;;;15.02;94.10;101592.47;2568805;30;137033;-39
2021/08/13 01:22:53;;;;;;;;;;;16.30;99.90;;;14.99;93.97;101593.75;2569417;30;140377;-39
2021/08/13 01:25:25;;;;;;;;;;;16.30;99.90;;;14.98;93.81;101594.81;2568235;30;139062;-39
2021/08/13 01:27:55;;;;;;;;;;;16.30;99.90;;;14.98;94.27;101592.06;2569397;30;140468;-41
2021/08/13 01:30:26;;;;;;;;;;;16.30;99.90;;;14.98;94.19;101593.94;2569087;30;138742;-41
2021/08/13 01:33:04;;;;;;;;;;;16.30;99.90;;;14.98;94.56;101592.06;2568466;30;140104;-40
2021/08/13 01:35:40;;;;;;;;;;;16.30;99.90;;;14.98;94.92;101594.81;2568373;30;138298;-39
2021/08/13 01:38:13;;;;;;;;;;;16.20;99.90;;;14.98;94.59;101592.06;2568585;30;139953;-39
2021/08/13 01:40:46;;;;;;;;;;;16.20;99.90;;;14.97;95.02;101595.88;2568729;30;138506;-39
2021/08/13 01:43:20;;;;;;;;;;;16.20;99.90;;;14.98;94.88;101594.81;2569492;30;138468;-39
2021/08/13 01:45:52;;;;;;;;;;;16.30;99.90;;;14.98;95.26;101592.06;2569189;30;137953;-39
2021/08/13 01:48:20;;;;;;;;;;;16.30;99.90;;;15.00;95.17;101581.69;2568030;30;137791;-39
2021/08/13 01:50:50;;;;;;;;;;;16.30;99.90;;;15.07;95.74;101584.38;2567751;30;137068;-39
2021/08/13 01:53:20;;;;;;;;;;;16.30;99.90;;;15.10;96.25;101583.94;2568264;30;140673;-40
2021/08/13 01:55:53;;;;;;;;;;;16.30;99.90;;;15.13;96.31;101580.72;2565929;30;139141;-40
2021/08/13 01:58:24;;;;;;;;;;;16.40;99.90;;;15.14;96.17;101579.66;2568952;30;140608;-39
2021/08/13 02:00:54;;;;;;;;;;;16.40;99.90;;;15.14;96.62;101584.34;2568586;30;136693;-39
2021/08/13 02:03:22;;;;;;;;;;;16.40;99.90;;;15.13;96.58;101593.66;2569438;30;138983;-40
2021/08/13 02:05:53;;;;;;;;;;;16.40;99.90;;;15.08;96.19;101592.38;2568643;30;138698;-39
2021/08/13 02:08:22;;;;;;;;;;;16.40;99.90;;;15.08;96.33;101584.13;2567402;30;139419;-39
2021/08/13 02:10:52;;;;;;;;;;;16.40;99.90;;;15.07;96.19;101584.38;2566973;30;137343;-39
2021/08/13 02:13:24;;;;;;;;;;;16.40;99.90;;;15.08;96.81;101581.38;2568085;30;138159;-39
2021/08/13 02:16:05;;;;;;;;;;;16.40;99.90;;;15.06;96.55;101578.03;2566531;30;138985;-39
2021/08/13 02:18:37;;;;;;;;;;;16.40;99.90;;;15.05;96.27;101576.34;2568107;30;138267;-39
2021/08/13 02:21:10;;;;;;;;;;;16.40;99.90;;;15.06;96.03;101574.47;2568713;30;137015;-39
2021/08/13 02:23:38;;;;;;;;;;;16.30;99.90;;;15.03;95.92;101575.72;2567706;30;138059;-39
2021/08/13 02:26:06;;;;;;;;;;;16.40;99.90;;;15.01;95.55;101569.63;2568461;30;138495;-40
2021/08/13 02:28:34;;;;;;;;;;;16.30;99.90;;;14.99;95.55;101568.19;2568637;30;140613;-39
2021/08/13 02:31:02;;;;;;;;;;;16.30;99.90;;;14.95;95.48;101576.03;2567098;30;138140;-41
2021/08/13 02:33:32;;;;;;;;;;;16.20;99.90;;;14.90;95.44;101579.44;2580537;30;139225;-40
2021/08/13 02:36:28;;;;;;;;;;;16.20;99.90;;;14.90;95.39;101584.09;2568084;30;137956;-40
2021/08/13 02:39:09;;;;;;;;;;;16.20;99.90;;;14.88;95.20;101583.47;2569841;30;140226;-40
2021/08/13 02:41:42;;;;;;;;;;;16.10;99.90;;;14.90;95.61;101584.09;2569301;30;138434;-40
2021/08/13 02:44:12;;;;;;;;;;;16.10;99.90;;;14.91;95.89;101586.59;2569421;30;138515;-40
2021/08/13 02:46:50;;;;;;;;;;;16.10;99.90;;;14.91;95.67;101589.34;2571354;30;138715;-40
2021/08/13 02:49:19;;;;;;;;;;;16.20;99.90;;;14.93;96.00;101586.41;2570608;30;139228;-40
2021/08/13 02:51:52;;;;;;;;;;;16.20;99.90;;;14.97;96.38;101582.13;2568772;30;138271;-40
2021/08/13 02:54:25;;;;;;;;;;;16.20;99.90;;;15.01;96.45;101586.09;2569098;30;138297;-40
2021/08/13 02:56:56;;;;;;;;;;;16.30;99.90;;;15.05;97.00;101592.00;2568658;30;139171;-41
2021/08/13 02:59:30;;;;;;;;;;;16.30;99.90;;;15.07;96.97;101584.38;2567186;30;140124;-40
2021/08/13 03:02:01;;;;;;;;;;;16.30;99.90;;;15.11;97.22;101566.38;2571037;30;139143;-40
2021/08/13 03:04:33;;;;;;;;;;;16.30;99.90;;;15.08;97.77;101556.66;2566356;30;139806;-40
2021/08/13 03:07:01;;;;;;;;;;;16.30;99.90;;;15.13;97.60;101563.41;2569671;30;136912;-40
2021/08/13 03:09:31;;;;;;;;;;;16.40;99.90;;;15.08;98.02;101548.41;2567658;30;138869;-40
2021/08/13 03:11:59;;;;;;;;;;;16.40;99.90;;;15.10;97.70;101551.78;2569377;30;139483;-40
2021/08/13 03:14:26;;;;;;;;;;;16.40;99.90;;;15.09;98.10;101554.75;2567704;30;140729;-40
2021/08/13 03:16:55;;;;;;;;;;;16.40;99.90;;;15.06;97.60;101549.72;2569311;30;137750;-40
2021/08/13 03:19:24;;;;;;;;;;;16.30;99.90;;;15.04;97.50;101555.44;2571582;30;138393;-40
2021/08/13 03:21:52;;;;;;;;;;;16.30;99.90;;;15.04;97.40;101558.19;2569151;30;137010;-40
2021/08/13 03:24:21;;;;;;;;;;;16.30;99.90;;;15.01;97.12;101558.63;2570771;30;138275;-40
2021/08/13 03:26:49;;;;;;;;;;;16.30;99.90;;;14.94;96.93;101555.09;2568042;30;138555;-40
2021/08/13 03:29:20;;;;;;;;;;;16.30;99.90;;;14.91;96.90;101537.16;2567501;30;139338;-40
2021/08/13 03:31:52;;;;;;;;;;;16.20;99.90;;;14.94;96.70;101547.69;2569196;30;138544;-40
2021/08/13 03:34:22;;;;;;;;;;;16.20;99.90;;;14.92;96.50;101558.06;2570033;30;139388;-40
2021/08/13 03:36:49;;;;;;;;;;;16.20;99.90;;;14.92;96.58;101555.31;2568065;30;139925;-42
2021/08/13 03:39:21;;;;;;;;;;;16.20;99.90;;;14.89;95.96;101546.69;2568389;30;139124;-40
2021/08/13 03:41:50;;;;;;;;;;;16.20;99.90;;;14.87;96.42;101559.81;2569948;30;137954;-40
2021/08/13 03:44:18;;;;;;;;;;;16.20;99.90;;;14.86;96.28;101560.88;2567960;30;137729;-40
2021/08/13 03:46:49;;;;;;;;;;;16.20;99.90;;;14.84;96.68;101563.00;2568668;30;138656;-40
2021/08/13 03:49:17;;;;;;;;;;;16.20;99.90;;;14.79;96.41;101569.16;2567202;30;140064;-40
2021/08/13 03:51:44;;;;;;;;;;;16.10;99.90;;;14.74;95.63;101569.00;2568749;30;137241;-40
2021/08/13 03:54:12;;;;;;;;;;;16.00;99.90;;;14.70;95.73;101571.31;2570083;30;140726;-40
2021/08/13 03:56:39;;;;;;;;;;;16.00;99.90;;;14.66;95.76;101567.34;2570823;30;137925;-40
2021/08/13 03:59:07;;;;;;;;;;;16.00;99.90;;;14.62;95.66;101563.34;2569974;30;141085;-40
2021/08/13 04:01:36;;;;;;;;;;;15.90;99.90;;;14.58;96.03;101560.19;2566651;30;137965;-40
2021/08/13 04:04:05;;;;;;;;;;;15.90;99.90;;;14.55;96.03;101571.63;2568339;30;138130;-39
2021/08/13 04:06:33;;;;;;;;;;;15.80;99.90;;;14.52;95.88;101570.16;2568275;30;137241;-40
2021/08/13 04:09:03;;;;;;;;;;;15.90;99.90;;;14.50;95.87;101564.03;2568999;30;136728;-40
2021/08/13 04:11:30;;;;;;;;;;;15.80;99.90;;;14.48;95.98;101574.41;2567023;30;137233;-41
2021/08/13 04:13:58;;;;;;;;;;;15.80;99.90;;;14.47;96.27;101569.16;2570049;30;138600;-40
2021/08/13 04:16:26;;;;;;;;;;;15.80;99.90;;;14.47;96.68;101571.91;2568353;30;137136;-40
2021/08/13 04:18:56;;;;;;;;;;;15.80;99.90;;;14.45;96.41;101576.72;2569349;30;139481;-40
2021/08/13 04:21:28;;;;;;;;;;;15.70;99.90;;;14.44;96.80;101564.94;2570096;30;139430;-40
2021/08/13 04:23:55;;;;;;;;;;;15.70;99.90;;;14.43;97.02;101562.38;2569250;30;138383;-39
2021/08/13 04:26:22;;;;;;;;;;;15.70;99.90;;;14.35;96.85;101547.03;2570868;30;138431;-40
2021/08/13 04:28:56;;;;;;;;;;;15.70;99.90;;;14.41;96.74;101561.78;2569780;30;158214;-40
2021/08/13 04:31:24;;;;;;;;;;;15.70;99.90;;;14.38;97.02;101554.84;2569341;30;137293;-40
2021/08/13 04:33:52;;;;;;;;;;;15.70;99.90;;;14.41;96.96;101567.25;2569529;30;142322;-40
2021/08/13 04:36:24;;;;;;;;;;;15.70;99.90;;;14.43;96.77;101559.66;2568675;30;136933;-40
2021/08/13 04:38:52;;;;;;;;;;;15.70;99.90;;;14.46;96.29;101561.97;2569012;30;140026;-40
2021/08/13 04:41:20;;;;;;;;;;;15.80;99.90;;;14.49;96.79;101567.03;2568722;30;138945;-40
2021/08/13 04:43:47;;;;;;;;;;;15.80;99.90;;;14.49;96.50;101562.34;2570306;30;140812;-40
2021/08/13 04:46:15;;;;;;;;;;;15.80;99.90;;;14.52;96.89;101550.09;2569358;30;138523;-40
2021/08/13 04:48:44;;;;;;;;;;;15.80;99.90;;;14.55;96.96;101544.16;2568783;30;139572;-40
2021/08/13 04:51:14;;;;;;;;;;;15.80;99.90;;;14.57;97.39;101550.28;2568648;30;137330;-41
2021/08/13 04:53:42;;;;;;;;;;;15.90;99.90;;;14.62;97.55;101544.94;2567352;30;139437;-40
2021/08/13 04:56:09;;;;;;;;;;;15.90;99.90;;;14.67;97.34;101541.56;2571690;30;137891;-40
2021/08/13 04:58:38;;;;;;;;;;;15.90;99.90;;;14.73;97.83;101543.44;2570602;30;139887;-40
2021/08/13 05:01:08;;;;;;;;;;;15.90;99.90;;;14.82;97.84;101550.31;2568350;30;137620;-41
2021/08/13 05:03:36;;;;;;;;;;;16.00;99.90;;;14.94;98.45;101544.94;2570230;30;139277;-40
2021/08/13 05:06:04;;;;;;;;;;;16.10;99.90;;;15.10;98.96;101554.53;2567443;30;138711;-40
2021/08/13 05:08:31;;;;;;;;;;;16.20;99.90;;;15.24;98.91;101558.00;2567863;30;139639;-40
2021/08/13 05:10:59;;;;;;;;;;;16.40;99.90;;;15.39;99.18;101560.41;2567312;30;137951;-40
2021/08/13 05:13:29;;;;;;;;;;;16.50;99.90;;;15.55;99.80;101563.63;2567872;30;137573;-40
2021/08/13 05:15:56;;;;;;;;;;;16.60;99.90;;;15.71;99.93;101551.16;2567835;30;138817;-40
2021/08/13 05:18:25;;;;;;;;;;;16.80;99.90;;;15.87;100.00;101560.72;2569917;30;141252;-40
2021/08/13 05:20:53;;;;;;;;;;;16.90;99.90;;;16.00;100.00;101558.91;2568192;30;139230;-40
2021/08/13 05:23:20;;;;;;;;;;;17.00;99.90;;;16.14;99.99;101559.59;2566537;30;140018;-41
2021/08/13 05:25:48;;;;;;;;;;;17.20;99.90;;;16.24;99.68;101559.84;2565615;30;137568;-40
2021/08/13 05:28:15;;;;;;;;;;;17.30;99.90;;;16.39;99.38;101560.28;2569537;30;137411;-40
2021/08/13 05:30:43;;;;;;;;;;;17.40;99.90;;;16.52;99.40;101561.16;2567729;30;138041;-40
2021/08/13 05:33:10;;;;;;;;;;;17.60;99.90;;;16.59;98.71;101558.31;2569805;30;138271;-40
2021/08/13 05:35:39;;;;;;;;;;;17.60;99.90;;;16.65;97.86;101569.22;2568692;30;137196;-41
2021/08/13 05:38:08;;;;;;;;;;;17.70;99.90;;;16.75;97.79;101570.56;2569614;30;139776;-40
2021/08/13 05:40:37;;;;;;;;;;;17.80;99.90;;;16.86;97.43;101574.44;2570773;30;139556;-40
2021/08/13 05:43:08;;;;;;;;;;;17.90;99.90;;;16.98;96.72;101583.59;2567986;30;139667;-41
2021/08/13 05:45:36;;;;;;;;;;;18.00;99.90;;;17.14;96.76;101578.44;2567613;30;137075;-40
2021/08/13 05:48:04;;;;;;;;;;;18.10;99.90;;;17.29;96.11;101577.97;2566897;30;140436;-40
2021/08/13 05:50:32;;;;;;;;;;;18.30;99.90;;;17.41;95.12;101584.34;2570159;30;138716;-40
2021/08/13 05:52:59;;;;;;;;;;;18.40;99.90;;;17.54;94.05;101586.03;2567654;30;137888;-40
2021/08/13 05:55:30;;;;;;;;;;;18.50;99.90;;;17.63;93.39;101592.84;2569504;30;137245;-40
2021/08/13 05:57:58;;;;;;;;;;;18.60;99.90;;;17.76;93.91;101588.13;2570709;30;139738;-40
2021/08/13 06:00:25;;;;;;;;;;;18.70;99.90;;;17.96;94.07;101590.50;2568319;30;138445;-41
2021/08/13 06:03:03;;;;;;;;;;;18.80;99.90;;;18.11;91.64;101604.66;2570160;30;139874;-40
2021/08/13 06:05:33;;;;;;;;;;;19.00;99.90;;;18.27;90.17;101624.31;2566086;30;137559;-41
2021/08/13 06:08:03;;;;;;;;;;;19.20;99.90;;;18.40;89.75;101617.66;2569253;30;137280;-40
2021/08/13 06:10:31;;;;;;;;;;;19.30;99.90;;;18.63;89.63;101621.41;2569749;30;138669;-41
2021/08/13 06:12:59;;;;;;;;;;;19.40;99.90;;;18.77;88.82;101627.47;2567128;30;139296;-41
2021/08/13 06:15:27;;;;;;;;;;;19.60;99.90;;;18.83;88.81;101627.31;2570481;30;137324;-41
2021/08/13 06:17:54;;;;;;;;;;;19.70;99.90;;;18.95;89.57;101631.94;2572899;30;139880;-41
2021/08/13 06:20:24;;;;;;;;;;;19.80;99.90;;;19.05;86.55;101642.38;2569068;30;138009;-40
2021/08/13 06:23:06;;;;;;;;;;;19.90;99.90;;;19.11;85.73;101639.44;2568433;30;139294;-41
2021/08/13 06:25:34;;;;;;;;;;;20.00;99.90;;;19.22;87.35;101640.44;2569460;30;137718;-42
2021/08/13 06:28:02;;;;;;;;;;;20.10;99.90;;;19.35;88.06;101643.97;2570548;30;138718;-41
2021/08/13 06:30:29;;;;;;;;;;;20.10;99.90;;;19.53;86.13;101640.94;2571053;30;137667;-41
2021/08/13 06:32:59;;;;;;;;;;;20.30;99.90;;;19.68;85.06;101648.63;2570021;30;137880;-40
2021/08/13 06:35:29;;;;;;;;;;;20.50;99.90;;;19.81;83.64;101654.88;2567706;30;139517;-40
2021/08/13 06:38:00;;;;;;;;;;;20.60;99.90;;;19.78;82.75;101636.03;2569428;30;139785;-40
2021/08/13 06:40:32;;;;;;;;;;;20.60;99.90;;;19.78;82.46;101652.63;2568268;30;137170;-40
2021/08/13 06:43:00;;;;;;;;;;;20.70;99.90;;;19.75;83.16;101653.97;2567581;30;139512;-40
2021/08/13 06:45:29;;;;;;;;;;;20.70;99.90;;;19.68;82.10;101650.56;2569839;30;137336;-41
2021/08/13 06:48:04;;;;;;;;;;;20.60;99.90;;;19.68;81.20;101653.31;2570884;30;139609;-41
2021/08/13 06:50:32;;;;;;;;;;;20.70;99.90;;;19.68;82.97;101658.84;2568867;30;137244;-41
2021/08/13 06:53:00;;;;;;;;;;;20.60;99.90;;;19.67;81.70;101657.19;2566770;30;139105;-40
2021/08/13 06:55:27;;;;;;;;;;;20.60;99.90;;;19.75;81.74;101653.97;2567284;30;137122;-40
2021/08/13 06:57:57;;;;;;;;;;;20.70;99.90;;;19.85;81.16;101644.97;2568427;30;138764;-40
2021/08/13 07:00:28;;;;;;;;;;;20.70;99.90;;;19.91;81.44;101645.94;2568979;30;137311;-41
2021/08/13 07:02:55;;;;;;;;;;;20.80;99.90;;;20.02;80.28;101644.97;2569566;30;137994;-40
2021/08/13 07:05:23;;;;;;;;;;;20.80;99.90;;;20.09;80.82;101659.47;2568835;30;139447;-41
2021/08/13 07:07:51;;;;;;;;;;;20.90;99.90;;;20.11;79.33;101662.81;2571577;30;139367;-40
2021/08/13 07:10:20;;;;;;;;;;;21.00;99.90;;;20.17;80.70;101660.13;2568363;30;137346;-41
2021/08/13 07:12:47;;;;;;;;;;;21.00;99.90;;;20.19;79.55;101664.31;2568778;30;139440;-41
2021/08/13 07:15:17;;;;;;;;;;;21.10;99.90;;;20.27;77.66;101663.00;2569096;30;138459;-40
2021/08/13 07:17:47;;;;;;;;;;;21.10;99.90;;;20.36;76.64;101677.25;2568843;30;140394;-40
2021/08/13 07:20:14;;;;;;;;;;;21.20;99.90;;;20.49;77.44;101671.31;2569278;30;138803;-40
2021/08/13 07:22:42;;;;;;;;;;;21.30;99.90;;;20.55;75.91;101673.06;2571041;30;139225;-40
2021/08/13 07:25:10;;;;;;;;;;;21.40;99.90;;;20.61;76.29;101673.09;2568283;30;137226;-41
2021/08/13 07:27:37;;;;;;;;;;;21.40;99.90;;;20.66;75.19;101667.63;2567501;30;139983;-41
2021/08/13 07:30:06;;;;;;;;;;;21.50;99.90;;;20.77;76.40;101668.56;2567090;30;138207;-40
2021/08/13 07:32:34;;;;;;;;;;;21.60;99.90;;;20.88;75.48;101680.63;2568409;30;139663;-40
2021/08/13 07:35:03;;;;;;;;;;;21.70;99.90;;;21.00;75.41;101670.22;2568972;30;137100;-40
2021/08/13 07:37:38;;;;;;;;;;;21.70;99.90;;;21.30;77.46;101676.31;2567506;30;139545;-41
2021/08/13 07:40:07;;;;;;;;;;;21.90;99.90;;;21.50;75.25;101675.66;2568257;30;137323;-40
2021/08/13 07:42:37;;;;;;;;;;;22.10;99.90;;;21.68;73.32;101677.19;2566852;30;138271;-41
2021/08/13 07:45:06;;;;;;;;;;;22.30;99.90;;;21.93;72.54;101679.28;2569869;30;139796;-42
2021/08/13 07:47:34;;;;;;;;;;;22.50;99.90;;;22.03;71.83;101683.25;2569405;30;138412;-41
2021/08/13 07:50:03;;;;;;;;;;;22.70;99.90;;;22.03;71.25;101697.13;2568252;30;136980;-41
2021/08/13 07:52:31;;;;;;;;;;;22.70;99.90;;;22.07;73.30;101696.31;2567350;30;139821;-41
2021/08/13 07:54:59;;;;;;;;;;;22.80;99.90;;;22.01;72.32;101704.88;2568688;30;139188;-42
2021/08/13 07:57:28;;;;;;;;;;;22.80;99.90;;;22.08;72.71;101709.09;2568709;30;139721;-38
2021/08/13 07:59:57;;;;;;;;;;;22.80;99.90;;;22.26;72.47;101721.69;2567698;30;137155;-38
2021/08/13 08:02:25;;;;;;;;;;;22.90;99.90;;;22.41;72.34;101729.28;2566629;30;138400;-38
2021/08/13 08:04:52;;;;;;;;;;;23.00;99.90;;;22.46;71.70;101730.41;2570163;30;137551;-38
2021/08/13 08:07:19;;;;;;;;;;;23.10;99.90;;;22.57;72.76;101728.53;2568364;30;137064;-38
2021/08/13 08:09:47;;;;;;;;;;;23.20;99.90;;;22.62;71.23;101734.94;2568513;30;136824;-38
2021/08/13 08:12:14;;;;;;;;;;;23.30;99.90;;;22.69;71.24;101735.53;2569209;30;137061;-39
2021/08/13 08:14:42;;;;;;;;;;;23.40;99.90;;;22.80;70.74;101741.13;2569035;30;137170;-39
2021/08/13 08:17:09;;;;;;;;;;;23.50;99.90;;;22.66;68.89;101738.84;2568787;30;137016;-38
2021/08/13 08:19:37;;;;;;;;;;;23.40;99.90;;;22.66;70.47;101744.41;2567936;30;137246;-38
2021/08/13 08:22:04;;;;;;;;;;;23.40;99.90;;;22.67;69.67;101742.47;2568670;30;136836;-38
2021/08/13 08:24:31;;;;;;;;;;;23.50;99.90;;;22.75;68.91;101749.47;2570357;30;137040;-38
2021/08/13 08:26:59;;;;;;;;;;;23.50;99.90;;;22.73;69.31;101751.69;2568477;30;138075;-38
2021/08/13 08:29:26;;;;;;;;;;;23.50;99.90;;;22.68;69.76;101753.34;2568076;30;137563;-37
2021/08/13 08:34:36;;;;;;;;;;;23.60;99.90;;;23.03;70.94;101764.00;2565588;30;137168;-39
2021/08/13 08:37:09;;;;;;;;;;;23.60;99.90;;;23.13;70.71;101766.78;2567344;30;137553;-40
2021/08/13 08:39:38;;;;;;;;;;;23.80;99.90;;;23.22;68.58;101767.09;2566096;30;136647;-39
2021/08/13 08:42:14;;;;;;;;;;;23.80;99.90;;;23.26;67.52;101771.03;2565840;30;137638;-36
2021/08/13 08:44:42;;;;;;;;;;;23.90;99.90;;;23.40;67.31;101757.41;2569513;30;136819;-42
2021/08/13 08:47:10;;;;;;;;;;;24.00;99.90;;;23.42;64.84;101775.50;2567502;30;136995;-40
2021/08/13 08:49:39;;;;;;;;;;;24.10;99.90;;;23.61;63.23;101786.13;2568849;30;136901;-41
2021/08/13 08:52:08;;;;;;;;;;;;;;;23.72;64.21;101811.16;2568105;30;137130;-39
2021/08/13 08:54:36;;;;;;;;;;;;;;;23.84;62.87;101809.78;2568643;30;136733;-40
2021/08/13 08:57:05;;;;;;;;;;;24.20;99.90;;;23.97;64.22;101794.44;2566318;30;137014;-40
2021/08/13 08:59:37;;;;;;;;;;;24.60;99.90;;;23.99;62.83;101789.44;2567437;30;136718;-39
2021/08/13 09:02:05;;;;;;;;;;;24.70;99.90;;;24.11;63.35;101791.09;2566566;30;137707;-39
2021/08/13 09:04:32;;;;;;;;;;;24.70;99.90;;;23.95;61.86;101793.91;2568555;30;136999;-40
2021/08/13 09:06:59;;;;;;;;;;;24.70;99.90;;;24.15;63.39;101797.81;2569422;30;137053;-40
2021/08/13 09:09:27;;;;;;;;;;;;;;;24.37;63.73;101793.84;2569076;30;137119;-40
2021/08/13 09:11:56;;;;;;;;;;;;;;;24.39;61.84;101786.00;2569324;30;137060;-42
2021/08/13 09:14:34;;;;;;;;;;;;;;;24.51;62.74;101800.50;2569041;30;136873;-38
2021/08/13 09:17:02;;;;;;;;;;;24.80;99.90;;;24.48;60.92;101805.78;2569400;30;137454;-40
2021/08/13 09:19:38;;;;;;;;;;;25.10;99.90;;;24.44;64.10;101807.47;2569716;30;137023;-40
2021/08/13 09:22:18;;;;;;;;;;;25.10;99.90;;;24.45;60.03;101820.31;2567099;30;137370;-40
2021/08/13 09:24:48;;;;;;;;;;;25.10;99.90;;;24.50;58.97;101826.72;2569040;30;136919;-39
2021/08/13 09:27:22;;;;;;;;;;;25.20;99.90;;;24.52;60.15;101824.47;2567692;30;137296;-40
2021/08/13 09:30:10;;;;;;;;;;;25.20;99.90;;;24.58;58.49;101830.03;2568964;30;137379;-40
2021/08/13 09:32:56;;;;;;;;;;;25.20;99.90;;;24.57;59.25;101826.41;2568981;30;138281;-41
2021/08/13 09:35:36;;;;;;;;;;;25.30;99.90;;;24.71;58.67;101809.91;2567378;30;137782;-39
2021/08/13 09:38:10;;;;;;;;;;;25.30;99.90;;;24.93;57.54;101811.50;2568732;30;137014;-40
2021/08/13 09:40:39;;;;;;;;;;;;;;;25.07;55.92;101817.31;2569169;30;137730;-40
2021/08/13 09:43:07;;;;;;;;;;;;;;;25.06;55.19;101813.69;2566700;30;138774;-39
2021/08/13 09:45:35;;;;;;;;;;;;;;;25.15;55.47;101808.34;2567434;30;137118;-40
2021/08/13 09:48:03;;;;;;;;;;;;;;;25.31;57.39;101809.06;2569088;30;138219;-38
2021/08/13 09:50:34;;;;;;;;;;;;;;;25.46;57.41;101807.28;2569598;30;137704;-40
2021/08/13 09:53:12;;;;;;;;;;;;;;;25.48;56.43;101811.50;2567898;30;138216;-40
2021/08/13 09:55:41;;;;;;;;;;;;;;;25.46;55.42;101810.06;2567828;30;137804;-40
2021/08/13 09:58:11;;;;;;;;;;;;;;;25.33;57.00;101803.19;2568317;30;138323;-40
2021/08/13 10:00:43;;;;;;;;;;;;;;;25.37;55.11;101802.31;2569608;30;136948;-40
2021/08/13 10:03:11;;;;;;;;;;;;;;;25.47;57.25;101801.44;2567002;30;137827;-38
2021/08/13 10:05:40;;;;;;;;;;;;;;;25.63;55.80;101802.16;2568504;30;137522;-40
2021/08/13 10:08:08;;;;;;;;;;;;;;;25.65;53.25;101804.69;2568852;30;137256;-40
2021/08/13 10:10:37;;;;;;;;;;;;;;;25.63;53.25;101802.16;2569177;30;137800;-40
2021/08/13 10:13:08;;;;;;;;;;;;;;;25.67;53.76;101791.25;2567666;30;139771;-39
2021/08/13 10:15:47;;;;;;;;;;;;;;;25.80;55.51;101798.13;2568395;30;137116;-38
2021/08/13 10:18:18;;;;;;;;;;;;;;;25.80;54.27;101795.31;2570180;30;139071;-42
2021/08/13 10:20:53;;;;;;;;;;;;;;;25.61;52.79;101795.22;2567313;30;137332;-40
2021/08/13 10:23:23;;;;;;;;;;;;;;;25.49;52.58;101790.00;2567699;30;138954;-40
2021/08/13 10:25:57;;;;;;;;;;;;;;;25.41;55.87;101785.81;2568415;30;138092;-42
2021/08/13 10:28:35;;;;;;;;;;;;;;;25.47;53.37;101786.66;2568954;30;140523;-40
2021/08/13 10:31:11;;;;;;;;;;;;;;;25.60;54.71;101788.78;2568445;30;136896;-39
2021/08/13 10:33:52;;;;;;;;;;;;;;;25.77;55.20;101790.31;2567476;30;138319;-40
2021/08/13 10:36:21;;;;;;;;;;;;;;;25.86;50.03;101782.97;2568167;30;138754;-40
2021/08/13 10:38:50;;;;;;;;;;;;;;;25.93;54.02;101785.44;2568110;30;140501;-40
2021/08/13 10:41:22;;;;;;;;;;;;;;;26.11;53.35;101790.25;2567115;30;138318;-39
2021/08/13 10:43:54;;;;;;;;;;;;;;;26.24;51.66;101788.75;2568763;30;139505;-40
2021/08/13 10:46:23;;;;;;;;;;;;;;;26.07;52.05;101788.38;2568846;30;138933;-40
2021/08/13 10:48:52;;;;;;;;;;;;;;;25.85;51.35;101786.88;2568646;30;138327;-39
2021/08/13 10:51:27;;;;;;;;;;;;;;;25.74;52.84;101793.72;2567120;30;137194;-40
2021/08/13 10:54:03;;;;;;;;;;;;;;;25.75;50.50;101787.00;2568035;30;139986;-39
2021/08/13 10:56:40;;;;;;;;;;;;;;;25.81;51.28;101783.03;2568183;30;136951;-40
2021/08/13 10:59:35;;;;;;;;;;;;;;;26.04;53.07;101789.78;2567136;30;139379;-39
2021/08/13 11:02:12;;;;;;;;;;;;;;;26.30;51.45;101785.94;2565405;30;138789;-40
2021/08/13 11:04:51;;;;;;;;;;;;;;;26.53;51.34;101784.25;2566989;30;138259;-40
2021/08/13 11:07:38;;;;;;;;;;;;;;;26.68;53.26;101786.88;2564936;30;138476;-39
2021/08/13 11:10:28;;;;;;;;;;;;;;;26.69;51.84;101790.47;2567858;30;140292;-40
2021/08/13 11:13:09;;;;;;;;;;;;;;;26.54;49.40;101783.97;2568147;30;137078;-40
2021/08/13 11:15:37;;;;;;;;;;;;;;;26.35;48.02;101783.88;2568360;30;139310;-40
2021/08/13 11:18:36;;;;;;;;;;;;;;;26.24;51.20;101790.72;2568183;30;138510;-40
2021/08/13 11:21:11;;;;;;;;;;;;;;;26.49;51.58;101789.59;2567505;30;140284;-41
2021/08/13 11:24:07;;;;;;;;;;;;;;;26.69;51.00;101798.88;2568068;30;137827;-40
2021/08/13 11:26:47;;;;;;;;;;;;;;;26.89;48.92;101796.97;2568490;30;138462;-40
2021/08/13 11:29:33;;;;;;;;;;;;;;;26.94;49.48;101783.75;2567781;30;136859;-41
2021/08/13 11:32:08;;;;;;;;;;;;;;;27.17;48.88;101797.16;2567683;30;138812;-40
2021/08/13 11:34:47;;;;;;;;;;;;;;;27.20;48.56;101793.75;2568621;30;139063;-40
2021/08/13 11:37:29;;;;;;;;;;;;;;;26.94;47.27;101803.34;2566307;30;138680;-40